createdAt,value
2024-01-15T00:00:47.832Z,97939.08
2024-01-15T00:03:17.743Z,97933.35
2024-01-15T02:28:06.736Z,97923.22
2024-01-15T02:30:37.347Z,97920.05
2024-01-15T02:33:07.471Z,97924.83
2024-01-15T02:35:40.644Z,97912.34
2024-01-15T02:38:10.546Z,97914.12
2024-01-15T02:40:40.578Z,97910.87
2024-01-15T02:43:10.429Z,97914.03
2024-01-15T02:45:40.268Z,97908.12
2024-01-15T02:48:10.332Z,97910.58
2024-01-15T02:50:40.229Z,97909.45
2024-01-15T02:53:10.044Z,97897.52
2024-01-15T02:55:39.985Z,97895.70
2024-01-15T02:58:09.869Z,97900.91
2024-01-15T03:00:40.083Z,97897.81
2024-01-15T03:03:09.950Z,97903.08
2024-01-15T03:05:39.897Z,97902.73
2024-01-15T03:08:09.825Z,97902.70
2024-01-15T03:10:39.898Z,97900.36
2024-01-15T03:13:09.772Z,97900.98
2024-01-15T03:15:39.656Z,97901.96
2024-01-15T03:18:10.342Z,97907.96
2024-01-15T03:20:40.230Z,97912.01
2024-01-15T03:23:10.235Z,97914.58
2024-01-15T03:25:40.125Z,97916.11
2024-01-15T03:28:10.177Z,97915.11
2024-01-15T03:30:40.217Z,97918.09
2024-01-15T03:33:10.070Z,97921.58
2024-01-15T03:35:39.834Z,97924.32
2024-01-15T03:38:09.746Z,97928.22
2024-01-15T03:40:39.862Z,97922.16
2024-01-15T03:43:09.921Z,97923.94
2024-01-15T03:45:39.660Z,97919.98
2024-01-15T03:48:10.109Z,97924.42
2024-01-15T03:50:40.080Z,97925.19
2024-01-15T03:53:09.946Z,97926.20
2024-01-15T03:55:39.887Z,97919.89
2024-01-15T03:58:09.708Z,97923.38
2024-01-15T04:00:40.229Z,97926.02
2024-01-15T04:03:10.110Z,97920.52
2024-01-15T04:05:40.622Z,97922.83
2024-01-15T04:08:10.569Z,97921.73
2024-01-15T04:10:40.364Z,97926.03
2024-01-15T04:13:10.095Z,97927.46
2024-01-15T04:15:39.853Z,97925.30
2024-01-15T04:18:09.775Z,97927.08
2024-01-15T04:20:39.721Z,97926.61
2024-01-15T04:23:09.622Z,97919.33
2024-01-15T04:25:43.615Z,97917.15
2024-01-15T04:28:13.503Z,97917.08
2024-01-15T04:30:43.365Z,97920.27
2024-01-15T04:33:13.458Z,97919.60
2024-01-15T04:35:43.484Z,97920.35
2024-01-15T04:38:13.622Z,97917.69
2024-01-15T04:40:43.815Z,97921.89
2024-01-15T04:43:13.816Z,97922.83
2024-01-15T04:45:43.893Z,97928.98
2024-01-15T04:48:13.856Z,97924.83
2024-01-15T04:50:43.794Z,97925.70
2024-01-15T04:53:13.855Z,97925.91
2024-01-15T04:55:43.717Z,97924.16
2024-01-15T04:58:13.463Z,97925.20
2024-01-15T05:00:43.488Z,97926.13
2024-01-15T05:03:13.660Z,97919.91
2024-01-15T05:05:43.620Z,97920.65
2024-01-15T05:08:13.560Z,97924.05
2024-01-15T05:10:43.759Z,97921.76
2024-01-15T05:13:13.732Z,97922.05
2024-01-15T05:15:44.085Z,97929.13
2024-01-15T05:18:14.428Z,97925.80
2024-01-15T05:20:44.506Z,97927.03
2024-01-15T05:23:14.275Z,97931.14
2024-01-15T05:25:44.176Z,97933.44
2024-01-15T05:28:14.813Z,97930.70
2024-01-15T06:19:09.909Z,97936.58
